• Join FlightAware (Why Join?)
  • Login
  • US Flag 
02:19AM EDT


 

Airport Tracker/Info


-or-


 

Live Flight TrackerFlight Track Log ✈ SWA471 ✈ 18-Apr-2013 ✈ KMHT - KBWI

Flight Track Log - Related Links

Times and Time Zones

All times are in EDT time to prevent confusion due to time zone crossing. See the SWA471 flight status page for this flight to view local times or setup timezone preferences in your user account.

Time Position Orientation Groundspeed Altitude Reporting Facility
EDT Latitude Longitude Course Direction KTS MPH feet Rate Location/Type
04:19PM 42.9167 -71.4167 266° West 159 183 1,100  Level KA90
04:20PM 42.9133 -71.4875 266° West 262 302 4,500 2,400 Climbing Boston Center
04:21PM 42.9606 -71.4189 47° Northeast 270 311 6,600 2,940 Climbing Boston Center
04:22PM 42.9969 -71.3075 66° East 312 359 10,400 2,520 Climbing Boston Center
04:23PM 43.0314 -71.2017 66° East 330 380 11,700 1,980 Climbing Boston Center
04:24PM 43.0733 -71.0503 69° East 366 421 14,500 2,340 Climbing Boston Center
04:25PM 43.0344 -70.9317 114° Southeast 365 420 16,500 1,980 Climbing Boston Center
04:26PM 42.9236 -70.9117 172° South 301 346 18,600 2,040 Climbing Boston Center
04:27PM 42.8283 -70.9594 200° South 327 376 20,700 1,860 Climbing Boston Center
04:28PM 42.7269 -71.0100 200° South 362 417 22,300 1,620 Climbing Boston Center
04:29PM 42.6214 -71.0603 199° South 387 445 23,900 1,380 Climbing Boston Center
04:30PM 42.5114 -71.1136 200° South 410 472 25,100 1,500 Climbing Boston Center
04:31PM 42.4164 -71.1914 211° Southwest 403 464 27,000 1,800 Climbing Boston Center
04:32PM 42.3719 -71.3272 246° West 378 435 28,800 1,500 Climbing Boston Center
04:33PM 42.3294 -71.4628 247° West 385 443 30,100 1,320 Climbing Boston Center
04:34PM 42.2828 -71.5983 245° Southwest 390 449 31,400 1,200 Climbing Boston Center
04:35PM 42.2397 -71.7333 247° West 396 456 32,500 180 Climbing Boston Center
04:36PM 42.1969 -71.8711 247° West 396 456 31,800 -840 Descending Boston Center
04:37PM 42.1392 -72.0006 239° Southwest 396 456 30,900 -900 Descending Boston Center
04:38PM 42.0728 -72.1214 234° Southwest 401 461 30,000 -480 Descending Boston Center
04:39PM 42.0083 -72.2444 235° Southwest 406 467 30,000 -480 Level Boston Center
04:40PM 41.9419 -72.3675 234° Southwest 406 467 29,100 -960 Descending Boston Center
04:41PM 41.8856 -72.4764 235° Southwest 406 467 28,100 -600 Descending Boston Center
04:42PM 41.8208 -72.5961 234° Southwest 406 467 28,000 -60 Descending Boston Center
04:43PM 41.7539 -72.7183 234° Southwest 406 467 28,000  Level Boston Center
04:44PM 41.6847 -72.8431 233° Southwest 406 467 28,000  Level Boston Center
04:45PM 41.6175 -72.9706 235° Southwest 411 473 28,000  Level Boston Center
04:46PM 41.5481 -73.0975 234° Southwest 428 493 28,000  Level Boston Center
04:47PM 41.4722 -73.2381 234° Southwest 428 493 28,000  Level Boston Center
04:48PM 41.3897 -73.3919 234° Southwest 433 498 28,000  Level Boston Center
04:49PM 41.3178 -73.5181 233° Southwest 433 498 28,000  Level Boston Center
04:51PM 41.1606 -73.7861 232° Southwest 438 504 28,000  Level New York Center
04:52PM 41.0886 -73.9094 232° Southwest 433 498 28,000 -360 Level New York Center
04:53PM 41.0167 -74.0328 232° Southwest 428 493 27,300 -900 Descending New York Center
04:54PM 40.9444 -74.1500 231° Southwest 428 493 26,300 -660 Descending New York Center
04:55PM 40.8769 -74.2564 230° Southwest 428 493 26,000 -240 Descending New York Center
04:56PM 40.8067 -74.3733 232° Southwest 428 493 25,900  Descending New York Center
04:57PM 40.7386 -74.4875 232° Southwest 423 487 26,000 -360 Climbing New York Center
04:58PM 40.6683 -74.6014 231° Southwest 417 480 25,200 -900 Descending New York Center
04:59PM 40.5997 -74.7206 233° Southwest 412 474 24,200 -1,140 Descending New York Center
05:00PM 40.5186 -74.8361 227° Southwest 412 474 23,000 -1,140 Descending New York Center
05:01PM 40.4442 -74.9381 226° Southwest 407 468 22,000 -960 Descending New York Center
05:02PM 40.3717 -75.0425 228° Southwest 400 460 21,100 -960 Descending New York Center
05:03PM 40.2969 -75.1469 227° Southwest 400 460 20,100 -960 Descending New York Center
05:04PM 40.2244 -75.2511 228° Southwest 400 460 19,200 -960 Descending New York Center
05:05PM 40.1475 -75.3547 226° Southwest 400 460 18,200 -660 Descending New York Center
05:06PM 40.0833 -75.4453 227° Southwest 394 453 18,000 -120 Descending New York Center
05:07PM 40.0064 -75.5486 226° Southwest 377 434 18,000  Level New York Center
05:08PM 39.9444 -75.6336 226° Southwest 371 427 18,000  Level New York Center
05:09PM 39.8794 -75.7456 233° Southwest 362 417 18,000 -600 Level New York Center
05:10PM 39.8294 -75.8394 235° Southwest 362 417 16,900 -1,980 Descending New York Center
05:12PM 39.7333 -76.0333 237° Southwest 331 381 12,500 -1,860 Descending Potomac TRACON
05:13PM 39.6833 -76.1333 237° Southwest 292 336 11,800 -840 Descending Potomac TRACON
05:14PM 39.6333 -76.2167 232° Southwest 300 345 11,000 -900 Descending Potomac TRACON
05:15PM 39.6000 -76.3167 247° West 317 365 10,100 -660 Descending Potomac TRACON
05:16PM 39.5667 -76.3833 237° Southwest 299 344 9,800 -900 Descending Potomac TRACON
05:17PM 39.5167 -76.4667 232° Southwest 261 300 8,500 -1,500 Descending Potomac TRACON
05:18PM 39.5000 -76.5500 255° West 253 291 6,800 -1,740 Descending Potomac TRACON
05:19PM 39.4500 -76.6500 237° Southwest 258 297 4,900 -1,440 Descending Potomac TRACON
05:20PM 39.4333 -76.7333 256° West 254 292 3,900 -480 Descending Potomac TRACON
05:21PM 39.3833 -76.8000 226° Southwest 235 270 4,000  Climbing Potomac TRACON
05:22PM 39.3333 -76.8333 207° Southwest 228 262 4,000 -360 Level Potomac TRACON
05:23PM 39.2833 -76.8167 166° South 208 239 3,300 -840 Descending Potomac TRACON
05:24PM 39.2333 -76.8000 166° South 176 203 2,400 -1,080 Descending Potomac TRACON
05:25PM 39.2000 -76.7667 142° Southeast 168 193 1,200 -900 Descending Potomac TRACON
05:26PM 39.1833 -76.7167 113° Southeast 136 157 600 -600 Descending Potomac TRACON
05:28PM 39.1667 -76.6667 270° West  Level FlightAware Approximate
05:35PM 39.1754 -76.6683 270° West  Level Estimated
05:36PM 39.1754 -76.6683 270° West  Level Estimated
05:37PM 39.1754 -76.6683 270° West  Level Estimated